createdAt,value
2018-05-18T00:00:53.549Z,16.88
2018-05-18T00:03:21.166Z,16.90
2018-05-18T00:05:48.745Z,16.95
2018-05-18T00:08:16.346Z,16.98
2018-05-18T00:10:43.943Z,17.02
2018-05-18T00:13:11.568Z,17.05
2018-05-18T00:15:39.181Z,17.06
2018-05-18T00:18:06.785Z,17.09
2018-05-18T00:20:34.352Z,17.11
2018-05-18T00:23:01.912Z,17.12
2018-05-18T00:25:29.530Z,17.14
2018-05-18T00:27:57.103Z,17.15
2018-05-18T00:30:24.718Z,17.18
2018-05-18T00:32:52.255Z,17.20
2018-05-18T00:35:19.806Z,17.16
2018-05-18T00:37:47.373Z,17.16
2018-05-18T00:40:14.974Z,17.17
2018-05-18T00:42:42.598Z,17.18
2018-05-18T00:45:10.161Z,17.18
2018-05-18T00:47:37.720Z,17.17
2018-05-18T00:50:05.285Z,17.15
2018-05-18T00:52:32.870Z,17.16
2018-05-18T00:55:00.464Z,17.15
2018-05-18T00:57:28.002Z,17.16
2018-05-18T00:59:55.588Z,17.19
2018-05-18T01:02:23.145Z,17.16
2018-05-18T01:04:50.745Z,17.13
2018-05-18T01:07:18.334Z,17.12
2018-05-18T01:09:45.907Z,17.10
2018-05-18T01:12:13.486Z,17.06
2018-05-18T01:14:41.070Z,17.08
2018-05-18T01:17:08.635Z,17.04
2018-05-18T01:19:36.224Z,17.03
2018-05-18T01:22:03.755Z,16.99
2018-05-18T01:24:31.336Z,16.95
2018-05-18T01:26:58.988Z,16.94
2018-05-18T01:29:26.570Z,16.92
2018-05-18T01:31:54.121Z,16.90
2018-05-18T01:34:21.704Z,16.87
2018-05-18T01:36:49.285Z,16.89
2018-05-18T01:39:16.892Z,16.89
2018-05-18T01:41:44.466Z,16.89
2018-05-18T01:44:12.061Z,16.88
2018-05-18T01:46:39.643Z,16.90
2018-05-18T01:49:07.213Z,16.87
2018-05-18T01:51:34.776Z,16.85
2018-05-18T01:54:02.321Z,16.84
2018-05-18T01:56:29.881Z,16.86
2018-05-18T01:58:57.409Z,16.89
2018-05-18T02:01:24.975Z,16.90
2018-05-18T02:03:52.493Z,16.82
2018-05-18T02:06:20.061Z,16.80
2018-05-18T02:08:47.623Z,16.75
2018-05-18T02:11:15.232Z,16.75
2018-05-18T02:13:42.784Z,16.73
2018-05-18T02:16:10.377Z,16.72
2018-05-18T02:18:37.924Z,16.70
2018-05-18T02:21:05.492Z,16.70
2018-05-18T02:23:33.054Z,16.73
2018-05-18T02:26:00.617Z,16.76
2018-05-18T02:28:28.173Z,16.74
2018-05-18T02:30:55.741Z,16.67
2018-05-18T02:33:23.292Z,16.64
2018-05-18T02:35:50.891Z,16.63
2018-05-18T02:38:18.512Z,16.62
2018-05-18T02:40:46.163Z,16.57
2018-05-18T02:43:13.830Z,16.55
2018-05-18T02:45:41.501Z,16.56
2018-05-18T02:48:09.097Z,16.56
2018-05-18T02:50:36.657Z,16.52
2018-05-18T02:53:04.222Z,16.51
2018-05-18T02:55:31.794Z,16.51
2018-05-18T02:57:59.330Z,16.48
2018-05-18T03:00:26.891Z,16.44
2018-05-18T03:02:54.486Z,16.41
2018-05-18T03:05:22.161Z,16.39
2018-05-18T03:07:49.776Z,16.38
2018-05-18T03:10:17.340Z,16.32
2018-05-18T03:12:44.948Z,16.24
2018-05-18T03:15:12.513Z,16.21
2018-05-18T03:17:40.103Z,16.19
2018-05-18T03:20:07.768Z,16.19
2018-05-18T03:22:35.368Z,16.18
2018-05-18T03:25:02.983Z,16.20
2018-05-18T03:27:30.632Z,16.18
2018-05-18T03:29:58.213Z,16.16
2018-05-18T03:32:25.876Z,16.10
2018-05-18T03:34:53.442Z,16.08
2018-05-18T03:37:20.988Z,16.04
2018-05-18T03:39:48.549Z,16.04
2018-05-18T03:42:16.133Z,16.06
2018-05-18T03:44:43.743Z,16.03
2018-05-18T03:47:11.320Z,16.00
2018-05-18T03:49:38.961Z,16.03
2018-05-18T03:52:06.607Z,16.05
2018-05-18T03:54:34.177Z,16.06
2018-05-18T03:57:01.725Z,16.08
2018-05-18T03:59:29.297Z,16.10
2018-05-18T04:02:08.546Z,16.11
2018-05-18T04:04:47.807Z,16.14
2018-05-18T04:07:27.162Z,16.15
2018-05-18T04:09:54.727Z,16.17
2018-05-18T04:12:22.283Z,16.21
2018-05-18T04:14:49.815Z,16.24
2018-05-18T04:17:17.432Z,16.25
2018-05-18T04:19:45.053Z,16.26
2018-05-18T04:22:12.661Z,16.27
2018-05-18T04:24:40.295Z,16.26
2018-05-18T04:27:07.936Z,16.26
2018-05-18T04:29:35.532Z,16.27
2018-05-18T04:32:03.095Z,16.21
2018-05-18T04:34:30.674Z,16.23
2018-05-18T04:36:58.267Z,16.20
2018-05-18T04:39:25.906Z,16.18
2018-05-18T04:41:53.553Z,16.18
2018-05-18T04:44:21.196Z,16.19
2018-05-18T04:46:49.088Z,16.15
2018-05-18T04:49:16.616Z,16.09
2018-05-18T04:51:44.208Z,16.02
2018-05-18T04:54:11.804Z,16.06
2018-05-18T04:56:39.360Z,16.02
2018-05-18T04:59:07.000Z,15.99
2018-05-18T05:01:34.541Z,15.98
2018-05-18T05:04:02.155Z,15.96
2018-05-18T05:06:29.713Z,15.99
2018-05-18T05:08:57.297Z,16.02
2018-05-18T05:11:24.959Z,16.03
2018-05-18T05:13:52.599Z,16.07
2018-05-18T05:16:20.152Z,16.12
2018-05-18T05:18:47.741Z,16.18
2018-05-18T05:21:15.313Z,16.25
2018-05-18T05:23:42.940Z,16.33
2018-05-18T05:26:10.446Z,16.38
2018-05-18T05:28:38.047Z,16.43
2018-05-18T05:31:05.678Z,16.45
2018-05-18T05:33:33.493Z,16.46
2018-05-18T05:36:01.060Z,16.46
2018-05-18T05:38:28.648Z,16.47
2018-05-18T05:40:56.256Z,16.46
2018-05-18T05:43:23.899Z,16.48
2018-05-18T05:45:51.472Z,16.48
2018-05-18T05:48:19.052Z,16.45
2018-05-18T05:50:46.682Z,16.54
2018-05-18T05:53:14.333Z,16.56
2018-05-18T05:55:41.918Z,16.57
2018-05-18T05:58:09.492Z,16.57
2018-05-18T06:00:37.047Z,16.59
2018-05-18T06:03:04.609Z,16.62
2018-05-18T06:05:32.172Z,16.62
2018-05-18T06:07:59.788Z,16.64
2018-05-18T06:10:27.367Z,16.69
2018-05-18T06:12:54.946Z,16.70
2018-05-18T06:15:22.525Z,16.73
2018-05-18T06:17:50.059Z,16.79
2018-05-18T06:20:17.634Z,16.85
2018-05-18T06:22:45.221Z,16.92
2018-05-18T06:25:12.794Z,17.06
2018-05-18T06:27:40.370Z,17.21
2018-05-18T06:30:07.993Z,17.37
2018-05-18T06:32:35.591Z,17.49
2018-05-18T06:35:03.198Z,17.59
2018-05-18T06:37:30.765Z,17.68
2018-05-18T06:39:58.358Z,17.76
2018-05-18T06:42:26.015Z,17.96
2018-05-18T06:44:53.654Z,18.12
2018-05-18T06:47:21.235Z,18.28
2018-05-18T06:49:48.836Z,18.47
2018-05-18T06:52:16.445Z,18.60
2018-05-18T06:54:44.018Z,18.70
2018-05-18T06:57:11.568Z,18.84
2018-05-18T06:59:39.137Z,19.03
2018-05-18T07:02:06.762Z,19.07
2018-05-18T07:04:34.334Z,19.11
2018-05-18T07:07:01.914Z,19.10
2018-05-18T07:09:29.559Z,19.23
2018-05-18T07:11:57.166Z,19.64
2018-05-18T07:14:24.748Z,19.87
2018-05-18T07:16:52.357Z,20.06
2018-05-18T07:19:19.919Z,20.31
2018-05-18T07:21:47.581Z,20.77
2018-05-18T07:24:15.147Z,21.20
2018-05-18T07:26:42.791Z,21.75
2018-05-18T07:29:10.389Z,22.60
2018-05-18T07:31:38.021Z,23.42
2018-05-18T07:34:05.593Z,24.25
2018-05-18T07:36:33.163Z,24.88
2018-05-18T07:39:00.735Z,25.62
2018-05-18T07:41:28.293Z,26.07
2018-05-18T07:43:55.923Z,26.22
2018-05-18T07:46:23.528Z,26.50
2018-05-18T07:48:51.112Z,26.52
2018-05-18T07:51:18.717Z,26.52
2018-05-18T07:53:46.273Z,26.96
2018-05-18T07:56:13.861Z,27.49
2018-05-18T07:58:41.415Z,28.01
2018-05-18T08:01:09.007Z,28.52
2018-05-18T08:03:36.566Z,28.75
2018-05-18T08:06:04.430Z,29.07
2018-05-18T08:08:32.048Z,29.39
2018-05-18T08:10:59.638Z,30.07
2018-05-18T08:13:27.287Z,30.56
2018-05-18T08:15:54.910Z,31.04
2018-05-18T08:18:22.499Z,31.13
2018-05-18T08:20:50.219Z,30.94
2018-05-18T08:23:17.904Z,30.67
2018-05-18T08:25:45.649Z,30.78
2018-05-18T08:28:13.250Z,31.23
2018-05-18T08:30:52.670Z,31.69
2018-05-18T08:33:20.368Z,32.00
2018-05-18T08:35:48.057Z,32.36
2018-05-18T08:38:15.789Z,32.65
2018-05-18T08:40:43.509Z,33.28
2018-05-18T08:43:11.125Z,33.73
2018-05-18T08:45:38.695Z,34.26
2018-05-18T08:48:06.288Z,34.66
2018-05-18T08:50:33.901Z,35.21
2018-05-18T08:53:01.618Z,35.37
2018-05-18T08:55:29.189Z,35.31
2018-05-18T08:57:56.803Z,35.50
2018-05-18T09:00:24.425Z,35.41
2018-05-18T09:02:52.145Z,35.09
2018-05-18T09:05:19.715Z,35.35
2018-05-18T09:07:47.299Z,35.43
2018-05-18T09:10:14.862Z,34.89
2018-05-18T09:12:42.477Z,34.80
2018-05-18T09:15:10.052Z,35.45
2018-05-18T09:17:37.842Z,35.44
2018-05-18T09:20:05.463Z,35.57
2018-05-18T09:22:33.120Z,35.90
2018-05-18T09:25:00.857Z,35.53
2018-05-18T09:27:28.557Z,36.33
2018-05-18T09:29:56.303Z,36.73
2018-05-18T09:32:23.911Z,37.02
2018-05-18T09:34:51.482Z,37.07
2018-05-18T09:37:25.137Z,37.31
2018-05-18T09:39:52.886Z,37.77
2018-05-18T09:42:20.473Z,38.11
2018-05-18T09:44:48.036Z,38.41
2018-05-18T09:47:15.742Z,38.68
2018-05-18T09:49:43.344Z,38.80
2018-05-18T09:52:10.933Z,39.34
2018-05-18T09:54:38.749Z,39.18
2018-05-18T09:57:06.281Z,39.13
2018-05-18T09:59:33.953Z,39.46
2018-05-18T10:04:35.487Z,40.27
2018-05-18T10:07:03.207Z,40.57
2018-05-18T10:09:30.781Z,40.93
2018-05-18T10:11:58.404Z,41.35
2018-05-18T10:14:26.117Z,41.57
2018-05-18T10:16:53.923Z,41.69
2018-05-18T10:19:21.609Z,41.90
2018-05-18T10:21:49.305Z,42.10
2018-05-18T10:24:16.908Z,42.10
2018-05-18T10:26:44.550Z,41.29
2018-05-18T10:29:12.168Z,40.24
2018-05-18T10:31:39.842Z,40.46
2018-05-18T10:34:07.516Z,41.05
2018-05-18T10:36:35.055Z,41.69
2018-05-18T10:39:02.689Z,42.26
2018-05-18T10:41:30.274Z,42.64
2018-05-18T10:43:57.946Z,42.78
2018-05-18T10:46:25.569Z,43.10
2018-05-18T10:48:53.176Z,43.59
2018-05-18T10:51:20.724Z,43.91
2018-05-18T10:53:48.334Z,44.18
2018-05-18T10:56:15.923Z,44.29
2018-05-18T10:58:43.493Z,44.30
2018-05-18T11:01:11.053Z,44.41
2018-05-18T11:03:38.726Z,44.58
2018-05-18T11:06:06.309Z,44.40
2018-05-18T11:08:33.948Z,44.08
2018-05-18T11:11:01.628Z,43.83
2018-05-18T11:13:29.228Z,43.26
2018-05-18T11:15:56.836Z,43.02
2018-05-18T11:18:24.483Z,42.68
2018-05-18T11:20:52.032Z,42.20
2018-05-18T11:23:19.588Z,41.84
2018-05-18T11:25:47.208Z,40.99
2018-05-18T11:28:14.834Z,40.05
2018-05-18T11:30:42.448Z,39.12
2018-05-18T11:33:10.106Z,38.04
2018-05-18T11:35:37.821Z,37.04
2018-05-18T11:38:05.440Z,35.97
2018-05-18T11:40:33.076Z,35.18
2018-05-18T11:43:00.636Z,34.36
2018-05-18T11:45:28.229Z,33.60
2018-05-18T11:47:55.811Z,33.00
2018-05-18T11:50:23.674Z,32.48
2018-05-18T11:52:51.298Z,31.88
2018-05-18T11:55:18.924Z,31.47
2018-05-18T11:57:46.503Z,31.11
2018-05-18T12:00:14.082Z,30.68
2018-05-18T12:02:41.750Z,30.43
2018-05-18T12:05:09.338Z,30.13
2018-05-18T12:07:36.939Z,29.96
2018-05-18T12:10:04.510Z,29.77
2018-05-18T12:12:32.109Z,29.54
2018-05-18T12:15:00.122Z,29.30
2018-05-18T12:17:27.704Z,29.04
2018-05-18T12:19:55.273Z,28.89
2018-05-18T12:22:22.859Z,28.78
2018-05-18T12:24:50.496Z,28.61
2018-05-18T12:27:18.121Z,28.41
2018-05-18T12:29:45.677Z,28.31
2018-05-18T12:32:13.256Z,28.25
2018-05-18T12:34:40.862Z,28.18
2018-05-18T12:37:08.428Z,28.11
2018-05-18T12:39:36.036Z,28.13
2018-05-18T12:42:03.640Z,27.97
2018-05-18T12:44:31.326Z,27.79
2018-05-18T12:46:58.984Z,27.53
2018-05-18T12:49:26.669Z,27.38
2018-05-18T12:51:54.361Z,27.27
2018-05-18T12:54:22.053Z,27.30
2018-05-18T12:56:49.721Z,27.33
2018-05-18T12:59:17.521Z,27.40
2018-05-18T13:01:45.178Z,27.38
2018-05-18T13:04:12.987Z,27.30
2018-05-18T13:06:40.718Z,27.16
2018-05-18T13:09:08.314Z,27.20
2018-05-18T13:11:36.779Z,27.32
2018-05-18T13:14:04.517Z,27.44
2018-05-18T13:16:32.687Z,27.44
2018-05-18T13:19:00.995Z,27.22
2018-05-18T13:21:28.707Z,27.14
2018-05-18T13:23:56.389Z,27.08
2018-05-18T13:26:24.985Z,27.06
2018-05-18T13:28:52.627Z,27.15
2018-05-18T13:31:20.398Z,27.07
2018-05-18T13:33:48.251Z,26.97
2018-05-18T13:36:15.922Z,26.96
2018-05-18T13:38:43.681Z,26.83
2018-05-18T13:41:11.217Z,26.77
2018-05-18T13:43:38.814Z,26.69
2018-05-18T13:46:06.459Z,26.69
2018-05-18T13:48:34.148Z,26.69
2018-05-18T13:51:01.841Z,26.71
2018-05-18T13:53:29.556Z,26.74
2018-05-18T13:55:57.256Z,26.73
2018-05-18T13:58:24.869Z,26.73
2018-05-18T14:00:52.510Z,26.65
2018-05-18T14:03:20.220Z,26.54
2018-05-18T14:05:47.852Z,26.48
2018-05-18T14:08:15.584Z,26.40
2018-05-18T14:10:43.223Z,26.31
2018-05-18T14:13:10.961Z,26.32
2018-05-18T14:15:38.580Z,26.26
2018-05-18T14:18:06.274Z,26.25
2018-05-18T14:20:33.904Z,26.23
2018-05-18T14:23:01.562Z,26.23
2018-05-18T14:25:29.192Z,26.27
2018-05-18T14:27:56.889Z,26.36
2018-05-18T14:30:24.547Z,26.40
2018-05-18T14:32:52.233Z,26.45
2018-05-18T14:35:19.802Z,26.54
2018-05-18T14:37:47.540Z,26.67
2018-05-18T14:40:15.065Z,26.73
2018-05-18T14:42:42.639Z,26.86
2018-05-18T14:45:10.219Z,26.78
2018-05-18T14:47:37.813Z,26.94
2018-05-18T14:50:05.405Z,27.00
2018-05-18T14:52:33.035Z,27.04
2018-05-18T14:55:00.602Z,27.06
2018-05-18T14:57:28.195Z,27.05
2018-05-18T14:59:55.843Z,27.06
2018-05-18T15:02:23.478Z,27.13
2018-05-18T15:04:51.282Z,27.05
2018-05-18T15:07:18.838Z,26.87
2018-05-18T15:09:46.378Z,26.88
2018-05-18T15:12:13.965Z,26.81
2018-05-18T15:14:41.519Z,26.79
2018-05-18T15:17:09.119Z,26.76
2018-05-18T15:19:36.748Z,26.74
2018-05-18T15:22:04.288Z,26.73
2018-05-18T15:24:31.863Z,26.73
2018-05-18T15:26:59.411Z,26.75
2018-05-18T15:29:26.996Z,26.81
2018-05-18T15:31:54.534Z,26.82
2018-05-18T15:34:22.087Z,26.74
2018-05-18T15:36:49.857Z,26.65
2018-05-18T15:39:17.832Z,26.61
2018-05-18T15:41:45.620Z,26.46
2018-05-18T15:44:13.222Z,26.36
2018-05-18T15:46:40.785Z,26.24
2018-05-18T15:49:08.373Z,26.29
2018-05-18T15:51:35.961Z,26.35
2018-05-18T15:54:03.554Z,26.33
2018-05-18T15:56:31.097Z,26.40
2018-05-18T15:58:58.693Z,26.36
2018-05-18T16:01:26.254Z,26.31
2018-05-18T16:03:53.892Z,26.32
2018-05-18T16:06:21.544Z,26.34
2018-05-18T16:08:49.135Z,26.34
2018-05-18T16:11:16.753Z,26.29
2018-05-18T16:13:44.341Z,26.25
2018-05-18T16:16:11.977Z,26.23
2018-05-18T16:18:39.604Z,26.25
2018-05-18T16:21:07.260Z,26.19
2018-05-18T16:23:35.054Z,26.18
2018-05-18T16:26:02.658Z,26.13
2018-05-18T16:28:30.235Z,26.08
2018-05-18T16:30:57.846Z,25.97
2018-05-18T16:33:25.495Z,25.95
2018-05-18T16:35:53.017Z,25.87
2018-05-18T16:38:20.608Z,25.85
2018-05-18T16:40:48.217Z,25.75
2018-05-18T16:43:15.852Z,25.65
2018-05-18T16:45:43.447Z,25.54
2018-05-18T16:48:11.036Z,25.53
2018-05-18T16:50:38.711Z,25.51
2018-05-18T16:53:06.271Z,25.42
2018-05-18T16:55:33.938Z,25.38
2018-05-18T16:58:02.515Z,25.33
2018-05-18T17:00:30.124Z,25.31
2018-05-18T17:02:57.724Z,25.31
2018-05-18T17:05:25.314Z,25.24
2018-05-18T17:07:52.884Z,25.18
2018-05-18T17:10:20.474Z,25.05
2018-05-18T17:12:48.131Z,24.97
2018-05-18T17:15:15.843Z,24.93
2018-05-18T17:17:43.493Z,24.87
2018-05-18T17:20:11.803Z,24.84
2018-05-18T17:22:39.888Z,24.71
2018-05-18T17:25:07.605Z,24.60
2018-05-18T17:27:35.206Z,24.52
2018-05-18T17:30:02.774Z,24.46
2018-05-18T17:32:30.402Z,24.40
2018-05-18T17:34:58.574Z,24.30
2018-05-18T17:37:26.189Z,24.20
2018-05-18T17:39:53.843Z,24.10
2018-05-18T17:42:21.527Z,24.00
2018-05-18T17:44:49.116Z,23.86
2018-05-18T17:47:16.682Z,23.72
2018-05-18T17:49:44.296Z,23.62
2018-05-18T17:52:11.895Z,23.48
2018-05-18T17:54:39.495Z,23.37
2018-05-18T17:57:07.048Z,23.26
2018-05-18T17:59:34.658Z,23.17
2018-05-18T18:02:02.201Z,23.16
2018-05-18T18:04:29.832Z,23.10
2018-05-18T18:06:57.444Z,22.96
2018-05-18T18:09:25.112Z,22.85
2018-05-18T18:11:52.705Z,22.80
2018-05-18T18:14:21.325Z,22.77
2018-05-18T18:16:48.904Z,22.73
2018-05-18T18:19:16.500Z,22.66
2018-05-18T18:21:44.103Z,22.57
2018-05-18T18:24:11.644Z,22.57
2018-05-18T18:26:39.256Z,22.51
2018-05-18T18:29:06.845Z,22.45
2018-05-18T18:31:34.512Z,22.41
2018-05-18T18:34:02.949Z,22.39
2018-05-18T18:36:30.570Z,22.36
2018-05-18T18:38:58.196Z,22.32
2018-05-18T18:41:25.986Z,22.30
2018-05-18T18:43:53.598Z,22.23
2018-05-18T18:46:21.209Z,22.19
2018-05-18T18:48:48.747Z,22.08
2018-05-18T18:51:16.389Z,22.01
2018-05-18T18:53:43.998Z,21.91
2018-05-18T18:56:11.598Z,21.85
2018-05-18T18:58:39.192Z,21.79
2018-05-18T19:01:06.801Z,21.74
2018-05-18T19:03:34.351Z,21.68
2018-05-18T19:06:01.941Z,21.61
2018-05-18T19:08:29.595Z,21.55
2018-05-18T19:10:57.145Z,21.48
2018-05-18T19:13:24.771Z,21.39
2018-05-18T19:15:52.320Z,21.29
2018-05-18T19:18:19.887Z,21.22
2018-05-18T19:20:47.473Z,21.10
2018-05-18T19:23:15.024Z,21.01
2018-05-18T19:25:42.591Z,20.93
2018-05-18T19:28:10.179Z,20.86
2018-05-18T19:30:38.613Z,20.77
2018-05-18T19:33:06.181Z,20.70
2018-05-18T19:35:33.773Z,20.61
2018-05-18T19:38:01.335Z,20.54
2018-05-18T19:40:29.053Z,20.47
2018-05-18T19:42:56.614Z,20.42
2018-05-18T19:45:24.278Z,20.35
2018-05-18T19:47:53.091Z,20.30
2018-05-18T19:50:21.584Z,20.25
2018-05-18T19:52:49.140Z,20.18
2018-05-18T19:55:16.696Z,20.14
2018-05-18T19:57:44.283Z,20.10
2018-05-18T20:00:11.888Z,20.04
2018-05-18T20:02:39.576Z,19.98
2018-05-18T20:05:07.160Z,19.94
2018-05-18T20:07:34.724Z,19.92
2018-05-18T20:10:02.389Z,19.87
2018-05-18T20:12:29.975Z,19.82
2018-05-18T20:14:57.547Z,19.78
2018-05-18T20:17:25.098Z,19.73
2018-05-18T20:19:52.650Z,19.69
2018-05-18T20:22:20.253Z,19.61
2018-05-18T20:24:47.783Z,19.54
2018-05-18T20:27:15.389Z,19.52
2018-05-18T20:29:42.954Z,19.49
2018-05-18T20:32:10.523Z,19.45
2018-05-18T20:34:38.068Z,19.42
2018-05-18T20:37:05.685Z,19.39
2018-05-18T20:39:33.232Z,19.37
2018-05-18T20:42:00.780Z,19.11
2018-05-18T20:44:28.340Z,19.30
2018-05-18T20:46:55.894Z,19.25
2018-05-18T20:49:23.444Z,19.23
2018-05-18T20:51:51.177Z,19.21
2018-05-18T20:54:18.889Z,19.19
2018-05-18T20:56:46.552Z,19.14
2018-05-18T20:59:14.328Z,19.10
2018-05-18T21:01:42.088Z,19.08
2018-05-18T21:04:09.718Z,19.03
2018-05-18T21:06:37.271Z,19.00
2018-05-18T21:09:05.668Z,18.97
2018-05-18T21:11:33.211Z,18.92
2018-05-18T21:14:00.753Z,18.89
2018-05-18T21:16:28.329Z,18.83
2018-05-18T21:18:55.911Z,18.80
2018-05-18T21:21:23.459Z,18.74
2018-05-18T21:23:51.100Z,18.72
2018-05-18T21:26:18.648Z,18.60
2018-05-18T21:28:46.243Z,18.63
2018-05-18T21:31:13.777Z,18.58
2018-05-18T21:33:41.391Z,18.55
2018-05-18T21:36:08.961Z,18.51
2018-05-18T21:38:36.555Z,18.43
2018-05-18T21:41:04.145Z,18.34
2018-05-18T21:43:31.690Z,18.31
2018-05-18T21:45:59.295Z,18.21
2018-05-18T21:48:26.862Z,18.21
2018-05-18T21:50:54.446Z,18.16
2018-05-18T21:53:22.032Z,18.12
2018-05-18T21:55:49.688Z,18.10
2018-05-18T21:58:17.345Z,18.07
2018-05-18T22:00:45.015Z,18.01
2018-05-18T22:03:12.596Z,17.98
2018-05-18T22:05:40.213Z,17.95
2018-05-18T22:08:07.842Z,17.91
2018-05-18T22:10:35.532Z,17.86
2018-05-18T22:13:03.089Z,17.82
2018-05-18T22:15:30.727Z,17.77
2018-05-18T22:17:58.333Z,17.68
2018-05-18T22:20:25.941Z,17.57
2018-05-18T22:22:53.576Z,17.49
2018-05-18T22:25:21.144Z,17.38
2018-05-18T22:27:48.712Z,17.31
2018-05-18T22:30:16.304Z,17.25
2018-05-18T22:32:43.903Z,17.20
2018-05-18T22:35:11.528Z,17.11
2018-05-18T22:37:39.210Z,17.06
2018-05-18T22:40:06.824Z,17.02
2018-05-18T22:42:34.391Z,16.99
2018-05-18T22:45:01.976Z,16.95
2018-05-18T22:47:29.528Z,16.90
2018-05-18T22:49:57.088Z,16.83
2018-05-18T22:52:24.656Z,16.76
2018-05-18T22:54:52.194Z,16.70
2018-05-18T22:57:19.762Z,16.61
2018-05-18T22:59:47.319Z,16.53
2018-05-18T23:02:14.952Z,16.48
2018-05-18T23:04:42.524Z,16.47
2018-05-18T23:07:10.110Z,16.40
2018-05-18T23:09:37.641Z,16.36
2018-05-18T23:12:05.280Z,16.34
2018-05-18T23:14:32.896Z,16.29
2018-05-18T23:17:00.431Z,16.27
2018-05-18T23:19:28.017Z,16.24
2018-05-18T23:21:55.642Z,16.21
2018-05-18T23:24:23.294Z,16.16
2018-05-18T23:26:50.834Z,16.14
2018-05-18T23:29:18.419Z,16.11
2018-05-18T23:31:46.245Z,16.09
2018-05-18T23:34:13.782Z,16.06
2018-05-18T23:36:41.342Z,16.02
2018-05-18T23:39:08.922Z,15.99
2018-05-18T23:41:36.462Z,15.97
2018-05-18T23:44:04.074Z,15.90
2018-05-18T23:46:31.675Z,15.89
2018-05-18T23:48:59.255Z,15.90
2018-05-18T23:51:26.774Z,15.90
2018-05-18T23:53:54.319Z,15.90
2018-05-18T23:56:21.958Z,15.87
2018-05-18T23:58:49.513Z,15.86
